createdAt,value
2018-11-06T00:01:54.658Z,62.33
2018-11-06T00:05:05.196Z,59.90
2018-11-06T00:08:10.272Z,58.23
2018-11-06T00:11:15.577Z,60.27
2018-11-06T00:14:21.866Z,63.33
2018-11-06T00:17:27.207Z,60.60
2018-11-06T00:20:32.553Z,59.83
2018-11-06T00:23:38.180Z,59.17
2018-11-06T00:26:43.415Z,63.63
2018-11-06T00:29:48.763Z,61.83
2018-11-06T00:32:53.064Z,61.20
2018-11-06T00:35:57.381Z,58.07
2018-11-06T00:39:01.666Z,58.80
2018-11-06T00:42:06.083Z,56.70
2018-11-06T00:45:16.108Z,59.13
2018-11-06T00:48:20.829Z,58.70
2018-11-06T00:51:26.536Z,58.37
2018-11-06T00:54:31.956Z,60.60
2018-11-06T00:57:38.122Z,59.67
2018-11-06T01:00:43.760Z,61.87
2018-11-06T01:03:50.131Z,58.70
2018-11-06T01:06:55.761Z,59.00
2018-11-06T01:10:00.984Z,61.40
2018-11-06T01:13:06.536Z,61.60
2018-11-06T01:16:11.386Z,61.80
2018-11-06T01:19:16.659Z,62.40
2018-11-06T01:22:21.878Z,60.23
2018-11-06T01:25:27.599Z,62.47
2018-11-06T01:28:33.000Z,58.80
2018-11-06T01:31:39.143Z,59.17
2018-11-06T01:34:44.035Z,58.30
2018-11-06T01:37:48.982Z,59.77
2018-11-06T01:40:55.713Z,58.83
2018-11-06T01:44:00.929Z,56.87
2018-11-06T01:47:06.375Z,58.47
2018-11-06T01:50:14.730Z,59.10
2018-11-06T01:53:19.074Z,59.87
2018-11-06T01:56:23.400Z,59.03
2018-11-06T01:59:27.684Z,59.77
2018-11-06T02:02:31.977Z,58.17
2018-11-06T02:05:36.257Z,59.60
2018-11-06T02:08:40.495Z,56.43
2018-11-06T02:11:45.544Z,57.37
2018-11-06T02:14:51.151Z,56.73
2018-11-06T02:17:56.051Z,57.70
2018-11-06T02:21:01.129Z,57.57
2018-11-06T02:24:06.374Z,58.80
2018-11-06T02:27:11.529Z,55.00
2018-11-06T02:30:17.758Z,59.57
2018-11-06T02:33:23.160Z,57.60
2018-11-06T02:36:28.330Z,59.97
2018-11-06T02:39:33.781Z,57.70
2018-11-06T02:42:40.150Z,56.33
2018-11-06T02:45:45.083Z,58.07
2018-11-06T02:48:50.273Z,56.53
2018-11-06T02:51:55.673Z,55.40
2018-11-06T02:55:00.451Z,56.70
2018-11-06T02:58:05.648Z,56.80
2018-11-06T03:01:10.857Z,56.50
2018-11-06T03:04:16.337Z,58.30
2018-11-06T03:07:21.372Z,59.30
2018-11-06T03:10:26.836Z,56.47
2018-11-06T03:13:31.737Z,57.83
2018-11-06T03:16:36.654Z,57.47
2018-11-06T03:19:41.784Z,56.43
2018-11-06T03:22:47.131Z,56.23
2018-11-06T03:25:55.024Z,56.83
2018-11-06T03:29:00.165Z,57.83
2018-11-06T03:32:05.726Z,54.20
2018-11-06T03:35:16.185Z,57.17
2018-11-06T03:38:21.679Z,56.00
2018-11-06T03:41:26.790Z,55.33
2018-11-06T03:44:32.445Z,54.80
2018-11-06T03:47:39.014Z,55.87
2018-11-06T03:50:44.080Z,56.07
2018-11-06T03:53:49.221Z,57.20
2018-11-06T03:56:54.154Z,56.20
2018-11-06T03:59:59.390Z,57.33
2018-11-06T04:03:04.588Z,55.47
2018-11-06T04:06:09.562Z,55.90
2018-11-06T04:09:15.189Z,56.93
2018-11-06T04:12:21.900Z,53.90
2018-11-06T04:15:27.240Z,56.73
2018-11-06T04:18:32.580Z,54.20
2018-11-06T04:21:40.805Z,56.87
2018-11-06T04:24:46.106Z,54.60
2018-11-06T04:27:51.186Z,56.33
2018-11-06T04:30:56.537Z,55.53
2018-11-06T04:34:02.085Z,57.80
2018-11-06T04:37:10.503Z,56.67
2018-11-06T04:40:16.043Z,59.40
2018-11-06T04:43:20.679Z,56.63
2018-11-06T04:46:26.001Z,57.47
2018-11-06T04:49:31.062Z,56.07
2018-11-06T04:52:36.149Z,58.53
2018-11-06T04:55:41.391Z,58.77
2018-11-06T04:58:46.805Z,57.53
2018-11-06T05:01:52.232Z,58.90
2018-11-06T05:04:58.683Z,56.50
2018-11-06T05:08:03.891Z,54.23
2018-11-06T05:11:09.187Z,57.00
2018-11-06T05:14:16.978Z,54.53
2018-11-06T05:17:22.539Z,51.77
2018-11-06T05:20:27.475Z,50.87
2018-11-06T05:23:32.867Z,52.73
2018-11-06T05:26:37.383Z,52.77
2018-11-06T05:29:42.181Z,52.83
2018-11-06T05:32:47.447Z,53.93
2018-11-06T05:35:52.767Z,51.47
2018-11-06T05:38:57.098Z,52.77
2018-11-06T05:42:01.408Z,51.07
2018-11-06T05:45:05.790Z,50.53
2018-11-06T05:48:10.031Z,53.03
2018-11-06T05:51:14.679Z,50.73
2018-11-06T05:54:19.494Z,51.63
2018-11-06T05:57:25.672Z,52.20
2018-11-06T06:00:30.055Z,50.50
2018-11-06T06:03:34.599Z,51.83
2018-11-06T06:06:39.662Z,49.90
2018-11-06T06:09:48.652Z,50.53
2018-11-06T06:12:52.976Z,49.97
2018-11-06T06:15:58.192Z,49.50
2018-11-06T06:19:03.601Z,51.80
2018-11-06T06:22:09.185Z,49.77
2018-11-06T06:25:13.889Z,52.53
2018-11-06T06:28:19.334Z,51.13
2018-11-06T06:31:24.652Z,51.33
2018-11-06T06:34:29.635Z,52.13
2018-11-06T06:37:34.649Z,51.60
2018-11-06T06:40:39.037Z,47.90
2018-11-06T06:43:43.801Z,48.20
2018-11-06T06:46:48.739Z,46.57
2018-11-06T06:49:54.064Z,45.63
2018-11-06T06:52:58.333Z,47.53
2018-11-06T06:56:02.865Z,46.97
2018-11-06T06:59:07.471Z,48.57
2018-11-06T07:02:12.131Z,51.80
2018-11-06T07:05:20.520Z,48.27
2018-11-06T07:08:25.540Z,44.87
2018-11-06T07:11:29.870Z,44.83
2018-11-06T07:14:38.256Z,44.37
2018-11-06T07:17:45.000Z,45.53
2018-11-06T07:20:49.956Z,46.53
2018-11-06T07:23:54.939Z,44.63
2018-11-06T07:26:59.772Z,43.43
2018-11-06T07:30:04.392Z,42.50
2018-11-06T07:33:09.144Z,41.00
2018-11-06T07:36:13.814Z,39.97
2018-11-06T07:39:18.588Z,39.10
2018-11-06T07:42:23.938Z,42.17
2018-11-06T07:45:29.055Z,40.90
2018-11-06T07:48:33.369Z,39.93
2018-11-06T07:51:37.719Z,37.43
2018-11-06T07:54:42.136Z,40.40
2018-11-06T07:57:46.496Z,40.37
2018-11-06T08:00:51.182Z,39.40
2018-11-06T08:03:57.133Z,40.53
2018-11-06T08:07:02.994Z,40.27
2018-11-06T08:10:10.790Z,39.10
2018-11-06T08:13:16.181Z,35.43
2018-11-06T08:16:22.950Z,36.80
2018-11-06T08:19:28.158Z,39.87
2018-11-06T08:22:32.393Z,38.37
2018-11-06T08:25:37.538Z,40.83
2018-11-06T08:28:41.880Z,38.83
2018-11-06T08:31:46.653Z,39.43
2018-11-06T08:34:51.257Z,39.70
2018-11-06T08:37:56.193Z,36.43
2018-11-06T08:41:01.679Z,33.80
2018-11-06T08:44:07.324Z,36.37
2018-11-06T08:47:13.224Z,36.17
2018-11-06T08:50:19.492Z,35.73
2018-11-06T08:53:24.632Z,33.43
2018-11-06T08:56:35.057Z,35.60
2018-11-06T08:59:40.045Z,37.13
2018-11-06T09:02:46.042Z,32.27
2018-11-06T09:05:52.584Z,33.17
2018-11-06T09:08:58.497Z,32.77
2018-11-06T09:12:03.653Z,34.07
2018-11-06T09:15:15.363Z,33.20
2018-11-06T09:18:19.664Z,33.60
2018-11-06T09:21:23.932Z,33.17
2018-11-06T09:24:30.112Z,36.00
2018-11-06T09:27:35.875Z,32.33
2018-11-06T09:30:41.539Z,34.97
2018-11-06T09:33:46.237Z,33.47
2018-11-06T09:36:51.872Z,32.83
2018-11-06T09:40:00.435Z,35.83
2018-11-06T09:43:06.152Z,34.17
2018-11-06T09:46:11.396Z,32.70
2018-11-06T09:49:18.267Z,33.33
2018-11-06T09:52:23.729Z,31.97
2018-11-06T09:55:28.889Z,34.33
2018-11-06T09:58:33.820Z,33.13
2018-11-06T10:01:38.649Z,34.30
2018-11-06T10:04:44.188Z,34.67
2018-11-06T10:07:49.287Z,33.97
2018-11-06T10:10:54.401Z,33.63
2018-11-06T10:13:59.210Z,32.67
2018-11-06T10:17:05.279Z,31.47
2018-11-06T10:20:11.430Z,31.60
2018-11-06T10:23:16.681Z,34.30
2018-11-06T10:26:21.926Z,31.67
2018-11-06T10:29:27.081Z,34.50
2018-11-06T10:32:32.164Z,33.97
2018-11-06T10:35:37.231Z,34.87
2018-11-06T10:38:42.553Z,34.10
2018-11-06T10:41:47.243Z,33.23
2018-11-06T10:44:51.923Z,35.67
2018-11-06T10:47:57.561Z,32.53
2018-11-06T10:51:02.529Z,35.73
2018-11-06T10:54:07.829Z,32.67
2018-11-06T10:57:12.729Z,34.30
2018-11-06T11:00:22.608Z,35.80
2018-11-06T11:03:39.063Z,35.13
2018-11-06T11:06:43.320Z,33.47
2018-11-06T11:09:48.352Z,35.73
2018-11-06T11:12:53.477Z,38.43
2018-11-06T11:15:58.817Z,39.23
2018-11-06T11:19:03.914Z,39.57
2018-11-06T11:22:09.163Z,39.20
2018-11-06T11:25:15.571Z,39.07
2018-11-06T11:28:20.660Z,36.37
2018-11-06T11:31:25.569Z,34.00
2018-11-06T11:34:30.649Z,34.87
2018-11-06T11:37:36.456Z,34.97
2018-11-06T11:40:41.062Z,35.37
2018-11-06T11:43:46.955Z,34.60
2018-11-06T11:46:51.995Z,35.43
2018-11-06T11:49:56.765Z,35.57
2018-11-06T11:53:01.193Z,37.27
2018-11-06T11:56:05.949Z,37.40
2018-11-06T11:59:10.673Z,32.43
2018-11-06T12:02:15.489Z,34.77
2018-11-06T12:05:20.328Z,34.17
2018-11-06T12:08:25.249Z,34.83
2018-11-06T12:11:29.682Z,33.87
2018-11-06T12:14:35.016Z,34.43
2018-11-06T12:17:39.974Z,34.63
2018-11-06T12:20:44.736Z,36.17
2018-11-06T12:23:49.950Z,36.20
2018-11-06T12:26:55.100Z,37.40
2018-11-06T12:29:59.772Z,35.63
2018-11-06T12:33:04.349Z,37.57
2018-11-06T12:36:08.854Z,36.63
2018-11-06T12:39:14.763Z,35.30
2018-11-06T12:42:19.458Z,36.83
2018-11-06T12:45:23.745Z,36.27
2018-11-06T12:48:29.022Z,35.90
2018-11-06T12:51:34.441Z,34.80
2018-11-06T12:54:38.696Z,35.97
2018-11-06T12:57:43.016Z,34.07
2018-11-06T13:00:47.304Z,34.30
2018-11-06T13:03:51.661Z,35.33
2018-11-06T13:06:55.971Z,34.93
2018-11-06T13:10:00.856Z,34.87
2018-11-06T13:13:07.315Z,33.93
2018-11-06T13:16:13.046Z,32.00
2018-11-06T13:19:17.447Z,32.53
2018-11-06T13:22:21.879Z,31.17
2018-11-06T13:25:27.376Z,30.17
2018-11-06T13:28:31.647Z,33.17
2018-11-06T13:31:35.932Z,33.37
2018-11-06T13:34:41.099Z,34.60
2018-11-06T13:37:45.889Z,33.33
2018-11-06T13:40:50.481Z,32.73
2018-11-06T13:43:55.147Z,33.70
2018-11-06T13:46:59.518Z,33.50
2018-11-06T13:50:04.187Z,33.50
2018-11-06T13:53:09.302Z,33.50
2018-11-06T13:56:14.136Z,33.60
2018-11-06T13:59:25.903Z,34.10
2018-11-06T14:02:30.137Z,33.90
2018-11-06T14:05:34.619Z,34.70
2018-11-06T14:08:39.559Z,32.83
2018-11-06T14:11:44.129Z,31.37
2018-11-06T14:14:48.446Z,31.73
2018-11-06T14:17:52.815Z,31.17
2018-11-06T14:20:57.958Z,32.80
2018-11-06T14:24:03.429Z,32.37
2018-11-06T14:27:07.865Z,34.53
2018-11-06T14:30:16.531Z,32.53
2018-11-06T14:33:21.085Z,32.90
2018-11-06T14:36:25.829Z,31.10
2018-11-06T14:39:30.567Z,33.30
2018-11-06T14:42:35.585Z,33.57
2018-11-06T14:45:40.139Z,35.47
2018-11-06T14:48:44.607Z,34.97
2018-11-06T14:51:49.422Z,36.03
2018-11-06T14:54:54.235Z,34.73
2018-11-06T14:57:58.969Z,36.57
2018-11-06T15:01:03.723Z,36.27
2018-11-06T15:04:08.596Z,38.87
2018-11-06T15:07:13.411Z,38.70
2018-11-06T15:10:18.194Z,38.50
2018-11-06T15:13:23.689Z,38.20
2018-11-06T15:16:28.500Z,38.30
2018-11-06T15:19:33.710Z,39.70
2018-11-06T15:22:39.227Z,39.53
2018-11-06T15:25:44.197Z,42.47
2018-11-06T15:28:48.986Z,41.80
2018-11-06T15:31:53.483Z,43.53
2018-11-06T15:34:58.692Z,43.53
2018-11-06T15:38:03.503Z,44.77
2018-11-06T15:41:08.352Z,43.23
2018-11-06T15:44:12.624Z,40.03
2018-11-06T15:47:18.014Z,40.80
2018-11-06T15:50:22.862Z,39.20
2018-11-06T15:53:27.214Z,38.47
2018-11-06T15:56:32.350Z,38.50
2018-11-06T15:59:36.770Z,38.20
2018-11-06T16:02:41.118Z,35.30
2018-11-06T16:05:45.419Z,36.27
2018-11-06T16:08:50.509Z,37.03
2018-11-06T16:11:55.391Z,40.33
2018-11-06T16:15:00.703Z,40.07
2018-11-06T16:18:05.137Z,38.33
2018-11-06T16:21:09.968Z,38.47
2018-11-06T16:24:14.763Z,41.80
2018-11-06T16:27:19.158Z,40.97
2018-11-06T16:30:23.875Z,41.90
2018-11-06T16:33:28.671Z,42.33
2018-11-06T16:36:33.428Z,40.93
2018-11-06T16:39:37.815Z,42.20
2018-11-06T16:42:43.541Z,39.37
2018-11-06T16:45:48.527Z,41.03
2018-11-06T16:48:53.561Z,41.77
2018-11-06T16:51:58.048Z,37.83
2018-11-06T16:55:02.651Z,39.93
2018-11-06T16:58:06.912Z,38.73
2018-11-06T17:01:11.587Z,39.83
2018-11-06T17:04:16.514Z,46.73
2018-11-06T17:07:21.566Z,38.73
2018-11-06T17:10:32.651Z,43.67
2018-11-06T17:13:38.181Z,48.57
2018-11-06T17:16:43.377Z,42.80
2018-11-06T17:19:47.847Z,41.27
2018-11-06T17:22:52.229Z,41.70
2018-11-06T17:25:56.855Z,43.03
2018-11-06T17:29:01.612Z,41.47
2018-11-06T17:32:06.203Z,36.27
2018-11-06T17:35:13.059Z,37.50
2018-11-06T17:38:18.125Z,40.63
2018-11-06T17:41:22.711Z,37.80
2018-11-06T17:44:27.701Z,36.60
2018-11-06T17:47:32.944Z,36.03
2018-11-06T17:50:38.269Z,37.83
2018-11-06T17:53:43.596Z,36.53
2018-11-06T17:56:48.521Z,37.87
2018-11-06T17:59:53.585Z,39.13
2018-11-06T18:02:58.158Z,35.53
2018-11-06T18:08:36.504Z,36.63
2018-11-06T18:11:42.460Z,38.30
2018-11-06T18:14:46.819Z,35.87
2018-11-06T18:17:51.525Z,36.10
2018-11-06T18:20:55.675Z,35.83
2018-11-06T18:24:00.072Z,36.47
2018-11-06T18:27:04.546Z,36.17
2018-11-06T18:30:13.841Z,37.97
2018-11-06T18:33:18.329Z,39.03
2018-11-06T18:36:22.878Z,37.03
2018-11-06T18:39:27.363Z,36.60
2018-11-06T18:42:31.972Z,36.97
2018-11-06T18:45:36.926Z,37.20
2018-11-06T18:48:41.566Z,37.13
2018-11-06T18:51:46.071Z,37.40
2018-11-06T18:54:50.592Z,37.13
2018-11-06T18:57:55.554Z,36.10
2018-11-06T19:01:02.500Z,35.47
2018-11-06T19:04:08.003Z,35.03
2018-11-06T19:07:12.933Z,32.00
2018-11-06T19:10:17.889Z,35.33
2018-11-06T19:13:23.292Z,33.33
2018-11-06T19:16:28.760Z,34.80
2018-11-06T19:19:34.247Z,33.83
2018-11-06T19:22:38.951Z,34.37
2018-11-06T19:25:43.827Z,33.13
2018-11-06T19:28:48.476Z,33.33
2018-11-06T19:34:27.864Z,35.27
2018-11-06T19:37:32.827Z,36.67
2018-11-06T19:40:39.244Z,36.33
2018-11-06T19:43:45.015Z,37.73
2018-11-06T19:46:50.080Z,37.07
2018-11-06T19:49:55.504Z,37.90
2018-11-06T19:53:00.611Z,39.30
2018-11-06T19:56:05.790Z,38.23
2018-11-06T19:59:10.186Z,38.50
2018-11-06T20:02:15.297Z,40.07
2018-11-06T20:05:20.075Z,41.60
2018-11-06T20:08:24.596Z,39.93
2018-11-06T20:11:29.573Z,40.63
2018-11-06T20:14:34.631Z,41.97
2018-11-06T20:17:39.706Z,41.70
2018-11-06T20:20:44.235Z,45.30
2018-11-06T20:23:48.903Z,42.93
2018-11-06T20:26:54.554Z,42.47
2018-11-06T20:29:59.510Z,44.53
2018-11-06T20:33:05.176Z,44.57
2018-11-06T20:36:09.958Z,42.30
2018-11-06T20:39:14.864Z,40.97
2018-11-06T20:42:21.572Z,40.63
2018-11-06T20:45:27.694Z,42.00
2018-11-06T20:48:33.677Z,47.23
2018-11-06T20:51:38.806Z,41.30
2018-11-06T20:54:43.934Z,46.70
2018-11-06T20:57:49.535Z,50.33
2018-11-06T21:00:54.122Z,43.47
2018-11-06T21:03:58.729Z,48.13
2018-11-06T21:07:05.304Z,45.60
2018-11-06T21:10:09.905Z,46.47
2018-11-06T21:13:14.419Z,47.13
2018-11-06T21:16:18.811Z,43.17
2018-11-06T21:19:23.608Z,46.60
2018-11-06T21:22:28.481Z,47.00
2018-11-06T21:25:35.407Z,47.73
2018-11-06T21:28:39.765Z,44.13
2018-11-06T21:31:44.178Z,45.40
2018-11-06T21:34:49.690Z,45.37
2018-11-06T21:37:55.627Z,44.97
2018-11-06T21:41:00.016Z,44.40
2018-11-06T21:44:04.446Z,44.73
2018-11-06T21:47:08.913Z,43.60
2018-11-06T21:50:14.276Z,43.90
2018-11-06T21:53:18.738Z,45.47
2018-11-06T21:56:23.190Z,44.17
2018-11-06T21:59:27.591Z,45.93
2018-11-06T22:02:35.637Z,47.00
2018-11-06T22:05:40.343Z,47.10
2018-11-06T22:08:44.801Z,46.13
2018-11-06T22:11:49.229Z,47.80
2018-11-06T22:14:53.605Z,46.97
2018-11-06T22:18:00.621Z,44.97
2018-11-06T22:33:02.234Z,73.37
2018-11-06T22:36:06.624Z,54.53
2018-11-06T22:39:11.514Z,55.63
2018-11-06T22:42:15.776Z,57.20
2018-11-06T22:45:20.132Z,57.53
2018-11-06T22:48:24.415Z,54.00
2018-11-06T22:51:28.789Z,52.63
2018-11-06T22:54:33.238Z,52.87
2018-11-06T22:57:37.664Z,53.60
2018-11-06T23:00:47.346Z,52.67
2018-11-06T23:03:52.245Z,52.57
2018-11-06T23:06:56.922Z,58.03
2018-11-06T23:10:01.144Z,54.30
2018-11-06T23:13:05.534Z,54.07
2018-11-06T23:16:09.898Z,55.60
2018-11-06T23:19:14.810Z,52.57
2018-11-06T23:22:19.063Z,57.13
2018-11-06T23:25:23.378Z,53.50
2018-11-06T23:28:27.711Z,54.90
2018-11-06T23:31:31.977Z,54.83
2018-11-06T23:34:36.835Z,53.17
2018-11-06T23:37:41.892Z,55.03
2018-11-06T23:40:46.848Z,54.53
2018-11-06T23:43:51.229Z,53.87
2018-11-06T23:46:55.471Z,52.20
2018-11-06T23:49:59.824Z,50.10
2018-11-06T23:53:04.191Z,50.70
2018-11-06T23:56:08.518Z,48.77
2018-11-06T23:59:12.798Z,48.67
